Time;durP1;ratioP1;P1;durP2;ratioP2;P2;SDS_P1;SDS_P2;PMS_P1;PMS_P2;Temp;Humidity;BMP_temperature;BMP_pressure;BME280_temperature;BME280_humidity;BME280_pressure;Samples;Min_cycle;Max_cycle;Signal;HPM_P1;HPM_P2
2022/12/31 00:01:37;;;;;;;7.10;4.93;;;12.00;99.90;;;;;;5007522;28;20056;-82
2022/12/31 00:04:03;;;;;;;7.13;4.72;;;11.70;99.90;;;;;;5019150;28;20384;-83
2022/12/31 00:06:31;;;;;;;5.78;3.92;;;11.70;99.90;;;;;;5025952;28;20053;-82
2022/12/31 00:08:58;;;;;;;7.15;4.57;;;11.60;99.90;;;;;;5015025;28;20041;-82
2022/12/31 00:11:27;;;;;;;9.90;4.70;;;11.70;99.90;;;;;;5007924;28;20567;-82
2022/12/31 00:13:53;;;;;;;7.55;4.78;;;11.60;99.90;;;;;;5023850;28;20052;-82
2022/12/31 00:16:22;;;;;;;8.77;4.88;;;11.50;99.90;;;;;;5008346;28;20107;-81
2022/12/31 00:18:51;;;;;;;9.02;5.25;;;11.60;99.90;;;;;;5028573;28;20065;-82
2022/12/31 00:21:18;;;;;;;8.10;4.75;;;11.50;99.90;;;;;;5009093;28;20766;-82
2022/12/31 00:23:44;;;;;;;6.47;4.97;;;11.60;99.90;;;;;;5007877;28;20053;-81
2022/12/31 00:26:26;;;;;;;7.20;5.10;;;11.50;99.90;;;;;;5027056;28;20046;-81
2022/12/31 00:28:53;;;;;;;6.80;5.35;;;11.50;99.90;;;;;;5043162;28;20057;-82
2022/12/31 00:31:22;;;;;;;6.53;5.15;;;11.50;99.90;;;;;;5007341;28;20128;-81
2022/12/31 00:33:48;;;;;;;8.55;4.80;;;11.50;99.90;;;;;;5010583;28;20085;-81
2022/12/31 00:36:16;;;;;;;7.82;4.95;;;11.50;99.90;;;;;;5021673;28;20515;-82
2022/12/31 00:38:44;;;;;;;7.00;4.75;;;11.50;99.90;;;;;;5017287;28;20037;-82
2022/12/31 00:41:10;;;;;;;11.43;5.03;;;11.50;99.90;;;;;;5025510;28;20037;-82
2022/12/31 00:43:37;;;;;;;11.23;5.22;;;11.50;99.90;;;;;;5024565;28;20059;-81
2022/12/31 00:46:06;;;;;;;8.50;5.22;;;11.90;99.90;;;;;;5027476;28;20049;-82
2022/12/31 00:48:35;;;;;;;8.95;5.03;;;11.50;99.90;;;;;;5014678;28;20069;-81
2022/12/31 00:51:05;;;;;;;6.55;4.53;;;11.50;99.90;;;;;;5022302;28;20703;-82
2022/12/31 00:53:31;;;;;;;7.22;4.60;;;11.50;99.90;;;;;;5008958;28;20049;-82
2022/12/31 00:56:06;;;;;;;6.43;4.18;;;11.60;99.90;;;;;;5027540;28;20132;-82
2022/12/31 00:58:32;;;;;;;5.55;4.18;;;11.60;99.90;;;;;;5018263;28;20060;-82
2022/12/31 01:01:06;;;;;;;7.10;3.70;;;11.60;99.90;;;;;;5029603;28;20056;-82
2022/12/31 01:03:31;;;;;;;8.07;3.67;;;11.60;99.90;;;;;;5027732;28;20045;-81
2022/12/31 01:05:58;;;;;;;4.85;4.13;;;11.50;99.90;;;;;;5026210;28;20049;-82
2022/12/31 01:08:24;;;;;;;5.18;4.00;;;11.70;99.90;;;;;;5018326;28;20064;-82
2022/12/31 01:13:34;;;;;;;6.05;3.92;;;11.60;99.90;;;;;;5036899;28;20426;-82
2022/12/31 01:16:06;;;;;;;6.30;3.67;;;11.60;99.90;;;;;;5027135;28;20033;-82
2022/12/31 01:18:32;;;;;;;6.00;4.20;;;12.10;99.90;;;;;;5014335;28;20045;-82
2022/12/31 01:21:02;;;;;;;8.55;4.18;;;11.60;99.90;;;;;;5006464;28;20183;-84
2022/12/31 01:23:28;;;;;;;7.57;4.03;;;11.60;99.90;;;;;;4990844;28;20060;-83
2022/12/31 01:25:53;;;;;;;4.43;3.47;;;11.60;99.90;;;;;;5012538;28;20818;-82
2022/12/31 01:28:19;;;;;;;8.00;3.97;;;11.90;99.90;;;;;;5024153;28;20037;-82
2022/12/31 01:30:45;;;;;;;5.50;3.33;;;11.60;99.90;;;;;;5024795;28;20061;-82
2022/12/31 01:33:11;;;;;;;7.80;3.60;;;11.60;99.90;;;;;;5007404;28;20041;-82
2022/12/31 01:35:36;;;;;;;5.00;3.53;;;11.60;99.90;;;;;;5008203;28;20091;-82
2022/12/31 01:38:02;;;;;;;3.92;3.15;;;11.50;99.90;;;;;;5024787;28;20046;-82
2022/12/31 01:40:28;;;;;;;4.65;3.45;;;11.50;99.90;;;;;;5025784;28;20419;-82
2022/12/31 01:42:55;;;;;;;5.10;3.25;;;12.10;99.90;;;;;;4998655;28;20052;-82
2022/12/31 01:45:20;;;;;;;8.00;4.15;;;11.90;99.90;;;;;;5007359;28;20053;-82
2022/12/31 01:47:53;;;;;;;4.85;3.08;;;11.50;99.90;;;;;;5008109;28;20038;-82
2022/12/31 01:50:29;;;;;;;3.78;2.95;;;12.00;99.90;;;;;;5026996;28;20064;-82
2022/12/31 01:53:01;;;;;;;5.80;2.85;;;11.50;99.90;;;;;;5024837;28;20081;-81
2022/12/31 01:55:55;;;;;;;6.07;2.85;;;12.00;99.90;;;;;;5026147;28;20037;-82
2022/12/31 01:58:27;;;;;;;6.80;3.55;;;11.50;99.90;;;;;;5008268;28;20037;-82
2022/12/31 02:00:56;;;;;;;4.10;3.33;;;11.90;99.90;;;;;;5008903;28;20055;-82
2022/12/31 02:03:22;;;;;;;4.97;3.17;;;11.40;99.90;;;;;;5027187;28;20041;-82
2022/12/31 02:06:05;;;;;;;5.28;3.50;;;11.50;99.90;;;;;;5016689;28;20050;-82
2022/12/31 02:08:32;;;;;;;7.68;3.25;;;11.40;99.90;;;;;;5011599;28;20904;-82
2022/12/31 02:10:57;;;;;;;5.47;3.00;;;11.40;99.90;;;;;;5021676;28;20100;-82
2022/12/31 02:13:23;;;;;;;4.63;3.03;;;11.40;99.90;;;;;;5009874;28;20077;-82
2022/12/31 02:16:07;;;;;;;4.25;3.05;;;11.40;99.90;;;;;;5021352;28;20048;-82
2022/12/31 02:18:48;;;;;;;4.57;2.75;;;11.30;99.90;;;;;;5025607;28;20060;-82
2022/12/31 02:21:35;;;;;;;4.15;2.75;;;11.30;99.90;;;;;;5007369;28;20060;-82
2022/12/31 02:24:09;;;;;;;3.47;2.33;;;11.30;99.90;;;;;;5007514;28;20701;-82
2022/12/31 02:26:43;;;;;;;5.03;2.45;;;11.30;99.90;;;;;;5007754;28;20045;-82
2022/12/31 02:29:36;;;;;;;2.95;2.40;;;11.30;99.90;;;;;;5025860;28;20042;-82
2022/12/31 02:32:10;;;;;;;3.55;2.38;;;11.30;99.90;;;;;;5009030;28;20042;-82
2022/12/31 02:34:43;;;;;;;4.32;2.42;;;11.30;99.90;;;;;;5023409;28;20080;-82
2022/12/31 02:37:13;;;;;;;4.68;2.10;;;11.20;99.90;;;;;;5024352;28;20037;-82
2022/12/31 02:39:42;;;;;;;2.70;1.95;;;11.20;99.90;;;;;;5025525;28;21607;-82
2022/12/31 02:42:09;;;;;;;2.55;1.75;;;11.20;99.90;;;;;;5028543;28;20084;-82
2022/12/31 02:44:37;;;;;;;2.42;1.77;;;11.20;99.90;;;;;;5022415;28;20081;-82
2022/12/31 02:47:12;;;;;;;4.13;1.30;;;11.10;99.90;;;;;;5014706;28;20184;-83
2022/12/31 02:49:49;;;;;;;3.60;1.38;;;11.10;99.90;;;;;;5025343;28;20057;-82
2022/12/31 02:52:33;;;;;;;3.58;1.30;;;11.00;99.90;;;;;;5027611;28;20049;-82
2022/12/31 02:55:12;;;;;;;2.35;0.80;;;11.00;99.90;;;;;;5026026;28;20046;-82
2022/12/31 02:58:00;;;;;;;1.73;0.95;;;11.00;99.90;;;;;;5014055;28;20050;-82
2022/12/31 03:03:12;;;;;;;2.35;1.35;;;10.90;99.90;;;;;;5022099;28;20045;-82
2022/12/31 03:05:41;;;;;;;1.63;0.75;;;11.20;99.90;;;;;;5013393;28;20563;-82
2022/12/31 03:08:07;;;;;;;3.63;1.00;;;10.90;99.90;;;;;;5017159;28;20042;-83
2022/12/31 03:10:33;;;;;;;4.63;1.33;;;10.80;99.90;;;;;;5002235;28;20128;-82
2022/12/31 03:12:59;;;;;;;2.90;1.42;;;10.80;99.90;;;;;;5019620;28;20072;-82
2022/12/31 03:15:31;;;;;;;1.70;1.10;;;10.80;99.90;;;;;;5008593;28;20463;-82
2022/12/31 03:18:04;;;;;;;3.38;1.65;;;10.80;99.90;;;;;;5013599;28;20037;-82
2022/12/31 03:23:48;;;;;;;1.52;1.40;;;10.80;99.90;;;;;;5008978;28;20145;-83
2022/12/31 03:26:14;;;;;;;2.95;1.40;;;10.70;99.90;;;;;;5018086;28;20323;-83
2022/12/31 03:28:46;;;;;;;2.22;1.58;;;10.70;99.90;;;;;;5015645;28;20140;-83
2022/12/31 03:31:12;;;;;;;2.08;1.50;;;10.70;99.90;;;;;;5008143;28;20066;-83
2022/12/31 03:33:40;;;;;;;4.28;1.35;;;10.70;99.90;;;;;;5013932;28;20415;-83
2022/12/31 03:36:12;;;;;;;2.78;1.52;;;10.70;99.90;;;;;;5028401;28;20073;-83
2022/12/31 03:38:41;;;;;;;;;;;10.70;99.90;;;;;;5011290;28;20053;-83
2022/12/31 03:41:10;;;;;;;3.70;1.50;;;10.40;99.90;;;;;;5014223;28;20390;-83
2022/12/31 03:43:42;;;;;;;2.75;1.65;;;10.70;99.90;;;;;;5026444;28;20499;-84
2022/12/31 03:46:18;;;;;;;3.63;1.60;;;10.70;99.90;;;;;;5008508;28;20676;-83
2022/12/31 03:48:46;;;;;;;4.20;1.80;;;10.60;99.90;;;;;;5025705;28;20120;-84
2022/12/31 03:51:12;;;;;;;4.68;1.90;;;10.70;99.90;;;;;;5027839;28;20120;-83
2022/12/31 03:53:37;;;;;;;3.17;1.80;;;10.70;99.90;;;;;;5026990;28;20834;-83
2022/12/31 03:56:03;;;;;;;4.07;2.22;;;10.70;99.90;;;;;;5027385;28;20049;-83
2022/12/31 03:58:29;;;;;;;3.10;2.10;;;10.70;99.90;;;;;;4995345;28;20057;-83
2022/12/31 04:00:54;;;;;;;5.05;2.13;;;10.70;99.90;;;;;;5007791;28;20046;-83
2022/12/31 04:03:20;;;;;;;3.65;2.60;;;10.70;99.90;;;;;;5022997;28;20045;-83
2022/12/31 04:05:54;;;;;;;5.20;2.60;;;10.70;99.90;;;;;;5022898;28;20103;-83
2022/12/31 04:08:20;;;;;;;3.17;2.40;;;10.70;99.90;;;;;;5000323;28;20066;-83
2022/12/31 04:10:45;;;;;;;6.57;2.92;;;10.80;99.90;;;;;;5028886;28;20159;-83
2022/12/31 04:13:11;;;;;;;4.85;3.15;;;10.80;99.90;;;;;;5026450;28;20099;-83
2022/12/31 04:15:36;;;;;;;2.90;2.40;;;10.80;99.90;;;;;;5010460;28;20041;-82
2022/12/31 04:18:02;;;;;;;5.50;2.72;;;10.80;99.90;;;;;;5026924;28;20068;-83
2022/12/31 04:20:28;;;;;;;5.22;3.00;;;10.90;99.90;;;;;;5011314;28;20562;-83
2022/12/31 04:22:53;;;;;;;4.55;2.53;;;10.80;99.90;;;;;;5009980;28;20145;-83
2022/12/31 04:25:19;;;;;;;5.85;2.47;;;10.80;99.90;;;;;;5007699;28;20129;-83
2022/12/31 04:27:47;;;;;;;3.58;2.42;;;10.80;99.90;;;;;;5016204;28;20057;-83
2022/12/31 04:30:13;;;;;;;6.15;2.78;;;10.80;99.90;;;;;;5015554;28;20564;-83
2022/12/31 04:32:40;;;;;;;6.20;2.70;;;11.50;99.90;;;;;;5007517;28;20046;-82
2022/12/31 04:35:06;;;;;;;4.07;2.25;;;10.80;99.90;;;;;;5007992;28;20054;-83
2022/12/31 04:37:32;;;;;;;4.47;2.30;;;10.90;99.90;;;;;;5020146;28;20438;-83
2022/12/31 04:39:57;;;;;;;3.03;2.20;;;10.80;99.90;;;;;;5010795;28;20057;-83
2022/12/31 04:42:23;;;;;;;4.43;1.85;;;10.80;99.90;;;;;;5025191;28;20073;-82
2022/12/31 04:44:48;;;;;;;4.50;2.20;;;10.80;99.90;;;;;;5018627;28;20056;-82
2022/12/31 04:47:14;;;;;;;5.05;1.80;;;10.80;99.90;;;;;;5007785;28;20045;-83
2022/12/31 04:49:39;;;;;;;6.38;1.92;;;10.80;99.90;;;;;;5006238;28;20049;-83
2022/12/31 04:52:05;;;;;;;3.50;1.70;;;10.80;99.90;;;;;;5015762;28;20064;-83
2022/12/31 04:54:31;;;;;;;3.40;1.50;;;10.80;99.90;;;;;;5020426;28;20046;-83
2022/12/31 04:56:56;;;;;;;2.40;1.63;;;10.80;99.90;;;;;;5025964;28;20423;-83
2022/12/31 04:59:22;;;;;;;3.15;1.60;;;10.70;99.90;;;;;;5025799;28;20060;-83
2022/12/31 05:01:47;;;;;;;4.43;1.60;;;10.70;99.90;;;;;;5025966;28;20135;-82
2022/12/31 05:04:13;;;;;;;3.75;1.80;;;10.70;99.90;;;;;;5027514;28;20510;-82
2022/12/31 05:06:39;;;;;;;3.13;1.73;;;10.70;99.90;;;;;;5025006;28;20044;-82
2022/12/31 05:09:04;;;;;;;4.55;1.38;;;10.70;99.90;;;;;;5014464;28;20074;-83
2022/12/31 05:11:30;;;;;;;3.55;1.80;;;10.70;99.90;;;;;;5006283;28;20056;-83
2022/12/31 05:13:55;;;;;;;3.67;2.03;;;10.70;99.90;;;;;;5025719;28;20061;-83
2022/12/31 05:16:21;;;;;;;4.28;2.05;;;10.70;99.90;;;;;;5025772;28;20399;-83
2022/12/31 05:18:47;;;;;;;4.70;1.88;;;10.70;99.90;;;;;;5018462;28;20128;-83
2022/12/31 05:21:19;;;;;;;2.20;1.98;;;10.60;99.90;;;;;;5025208;28;20188;-83
2022/12/31 05:23:44;;;;;;;4.38;2.30;;;10.60;99.90;;;;;;5025931;28;20565;-83
2022/12/31 05:26:10;;;;;;;5.88;2.28;;;10.60;99.90;;;;;;5009244;28;20060;-83
2022/12/31 05:28:35;;;;;;;3.97;2.08;;;10.60;99.90;;;;;;5015585;28;20408;-83
2022/12/31 05:31:01;;;;;;;4.00;1.92;;;10.60;99.90;;;;;;5006797;28;20177;-82
2022/12/31 05:33:26;;;;;;;4.32;2.20;;;10.60;99.90;;;;;;5009176;28;20057;-82
2022/12/31 05:35:52;;;;;;;4.22;2.17;;;10.60;99.90;;;;;;5011426;28;20050;-83
2022/12/31 05:38:17;;;;;;;6.13;2.35;;;10.60;99.90;;;;;;5014915;28;20045;-83
2022/12/31 05:40:46;;;;;;;3.95;2.42;;;10.60;99.90;;;;;;5025560;28;20045;-82
2022/12/31 05:43:12;;;;;;;6.45;3.45;;;10.60;99.90;;;;;;5014445;28;20037;-84
2022/12/31 05:45:37;;;;;;;5.63;3.35;;;10.60;99.90;;;;;;5025583;28;20033;-83
2022/12/31 05:48:03;;;;;;;6.07;3.80;;;10.70;99.90;;;;;;5018675;28;21166;-83
2022/12/31 05:50:29;;;;;;;8.05;4.03;;;10.70;99.90;;;;;;5024490;28;20041;-82
2022/12/31 05:52:55;;;;;;;5.95;4.40;;;10.60;99.90;;;;;;4999093;28;20419;-83
2022/12/31 05:55:20;;;;;;;8.02;4.30;;;10.70;99.90;;;;;;5014429;28;20041;-83
2022/12/31 05:57:46;;;;;;;5.85;4.65;;;10.70;99.90;;;;;;5024964;28;20045;-83
2022/12/31 06:00:12;;;;;;;5.35;4.07;;;10.70;99.90;;;;;;5026357;28;20404;-83
2022/12/31 06:02:38;;;;;;;5.38;4.63;;;10.80;99.90;;;;;;5025505;28;20038;-82
2022/12/31 06:05:04;;;;;;;6.15;3.97;;;10.70;99.90;;;;;;5027489;28;20144;-83
2022/12/31 06:07:29;;;;;;;5.53;4.32;;;10.80;99.90;;;;;;5009196;28;20049;-83
2022/12/31 06:09:55;;;;;;;4.35;3.50;;;10.80;99.90;;;;;;5021961;28;20045;-83
2022/12/31 06:12:20;;;;;;;3.75;3.38;;;10.70;99.90;;;;;;5013345;28;20095;-83
2022/12/31 06:14:46;;;;;;;5.88;3.50;;;10.70;99.90;;;;;;5026010;28;20111;-82
2022/12/31 06:17:12;;;;;;;5.75;3.55;;;10.80;99.90;;;;;;5009798;28;20857;-82
2022/12/31 06:19:37;;;;;;;5.30;3.10;;;10.80;99.90;;;;;;5022176;28;20133;-83
2022/12/31 06:22:03;;;;;;;3.85;2.67;;;10.70;99.90;;;;;;5011165;28;20504;-83
2022/12/31 06:24:28;;;;;;;4.60;3.08;;;10.80;99.90;;;;;;5021119;28;20038;-83
2022/12/31 06:26:54;;;;;;;3.20;2.90;;;10.80;99.90;;;;;;5018661;28;20144;-82
2022/12/31 06:29:20;;;;;;;3.53;3.10;;;10.70;99.90;;;;;;5023028;28;20048;-83
2022/12/31 06:31:45;;;;;;;3.70;2.92;;;11.10;99.90;;;;;;5029627;28;20057;-83
2022/12/31 06:34:11;;;;;;;3.55;3.25;;;10.70;99.90;;;;;;4996428;28;20054;-82
2022/12/31 06:36:37;;;;;;;3.65;2.78;;;10.70;99.90;;;;;;5022413;28;20048;-82
2022/12/31 06:39:03;;;;;;;4.15;2.65;;;10.70;99.90;;;;;;5026049;28;20048;-82
2022/12/31 06:41:30;;;;;;;4.88;3.00;;;10.70;99.90;;;;;;5027613;28;20058;-82
2022/12/31 06:43:55;;;;;;;3.58;2.70;;;10.70;99.90;;;;;;5023380;28;20389;-82
2022/12/31 06:46:21;;;;;;;3.25;2.50;;;10.70;99.90;;;;;;5015552;28;20071;-83
2022/12/31 06:48:46;;;;;;;2.60;2.40;;;10.70;99.90;;;;;;5014230;28;20068;-82
2022/12/31 06:51:16;;;;;;;2.83;2.30;;;11.00;99.90;;;;;;5014721;28;20183;-83
2022/12/31 06:53:41;;;;;;;4.63;2.80;;;10.70;99.90;;;;;;5029385;28;20157;-82
2022/12/31 06:56:12;;;;;;;4.03;3.13;;;10.80;99.90;;;;;;5029067;28;20128;-83
2022/12/31 06:58:38;;;;;;;4.05;2.65;;;10.70;99.90;;;;;;5011166;28;20072;-83
2022/12/31 07:01:41;;;;;;;3.95;2.42;;;10.70;99.90;;;;;;5029388;28;20081;-83
2022/12/31 07:04:28;;;;;;;2.80;2.50;;;10.70;99.90;;;;;;5047958;28;20046;-84
2022/12/31 07:07:01;;;;;;;2.88;2.08;;;10.60;99.90;;;;;;5028137;28;20045;-82
2022/12/31 07:09:50;;;;;;;5.57;2.40;;;10.60;99.90;;;;;;5028961;28;20048;-83
2022/12/31 07:12:43;;;;;;;2.95;2.20;;;10.60;99.90;;;;;;5028988;28;20057;-83
2022/12/31 07:15:53;;;;;;;6.95;2.58;;;10.70;99.90;;;;;;5029338;28;20518;-83
2022/12/31 07:18:41;;;;;;;4.00;3.30;;;10.60;99.90;;;;;;5032393;28;20037;-83
2022/12/31 07:21:11;;;;;;;6.40;4.60;;;10.60;99.90;;;;;;5028522;28;20107;-84
2022/12/31 07:23:37;;;;;;;5.95;4.72;;;10.60;99.90;;;;;;5028746;28;20041;-83
2022/12/31 07:26:17;;;;;;;4.93;4.43;;;10.60;99.90;;;;;;5025778;28;21479;-83
2022/12/31 07:28:58;;;;;;;4.45;4.03;;;10.40;99.90;;;;;;5026969;28;20045;-81
2022/12/31 07:31:37;;;;;;;3.65;3.13;;;10.60;99.90;;;;;;5013964;28;20064;-82
2022/12/31 07:34:25;;;;;;;4.07;2.90;;;10.60;99.90;;;;;;5012651;28;20049;-81
2022/12/31 07:36:54;;;;;;;3.25;2.92;;;11.00;99.90;;;;;;5005640;28;20497;-82
2022/12/31 07:39:43;;;;;;;5.00;2.75;;;10.60;99.90;;;;;;4995471;28;20137;-81
2022/12/31 07:42:26;;;;;;;4.80;2.95;;;10.60;99.90;;;;;;5024737;28;20041;-81
2022/12/31 07:45:15;;;;;;;3.88;2.90;;;10.90;99.90;;;;;;5009373;28;20484;-81
2022/12/31 07:47:41;;;;;;;2.80;2.47;;;10.70;99.90;;;;;;5009348;28;20567;-83
2022/12/31 07:50:14;;;;;;;3.83;2.80;;;10.60;99.90;;;;;;5009945;28;20129;-83
2022/12/31 07:52:40;;;;;;;2.97;2.67;;;10.70;99.90;;;;;;5014877;28;20076;-83
2022/12/31 07:55:09;;;;;;;3.58;2.50;;;10.90;99.90;;;;;;5029340;28;20053;-83
2022/12/31 07:57:41;;;;;;;3.60;2.65;;;10.80;99.90;;;;;;5012804;28;20037;-82
2022/12/31 08:00:13;;;;;;;4.03;2.45;;;10.70;99.90;;;;;;5015022;28;20053;-82
2022/12/31 08:02:39;;;;;;;;;;;10.80;99.90;;;;;;5009274;28;20550;-82
2022/12/31 08:05:25;;;;;;;3.10;2.30;;;10.80;99.90;;;;;;5008239;28;19975;-83
2022/12/31 08:07:53;;;;;;;2.78;2.33;;;10.80;99.90;;;;;;5025834;28;20085;-83
2022/12/31 08:10:26;;;;;;;3.03;2.72;;;10.80;99.90;;;;;;5028413;28;20053;-82
2022/12/31 08:13:01;;;;;;;3.60;2.72;;;10.60;99.90;;;;;;5024655;28;20049;-82
2022/12/31 08:15:32;;;;;;;5.60;3.50;;;10.80;99.90;;;;;;5011656;28;20042;-82
2022/12/31 08:17:58;;;;;;;5.32;4.20;;;10.80;99.90;;;;;;5026310;28;20133;-83
2022/12/31 08:20:25;;;;;;;4.82;3.65;;;10.80;99.90;;;;;;5027924;28;20435;-83
2022/12/31 08:23:12;;;;;;;6.85;5.07;;;10.90;99.90;;;;;;5027705;28;20053;-83
2022/12/31 08:26:02;;;;;;;6.30;4.13;;;10.90;99.90;;;;;;5007362;28;20044;-82
2022/12/31 08:28:50;;;;;;;9.85;7.78;;;10.90;99.90;;;;;;5014370;28;20122;-82
2022/12/31 08:31:35;;;;;;;5.32;3.90;;;11.90;99.90;;;;;;5014501;28;20050;-82
2022/12/31 08:34:37;;;;;;;4.93;3.97;;;11.00;99.90;;;;;;5028859;28;20132;-84
2022/12/31 08:37:12;;;;;;;7.32;5.22;;;11.10;99.90;;;;;;5026876;28;20046;-84
2022/12/31 08:40:19;;;;;;;6.80;5.10;;;11.10;99.90;;;;;;5028289;28;20191;-83
2022/12/31 08:43:06;;;;;;;6.60;5.25;;;10.30;99.90;;;;;;5026759;28;20779;-84
2022/12/31 08:45:44;;;;;;;4.47;4.05;;;11.30;99.90;;;;;;5008613;28;20566;-83
2022/12/31 08:48:42;;;;;;;5.53;4.25;;;11.40;99.90;;;;;;5010222;28;20056;-85
2022/12/31 08:51:14;;;;;;;5.50;3.97;;;11.30;99.90;;;;;;5014655;28;20053;-80
2022/12/31 08:53:40;;;;;;;4.32;3.28;;;11.40;99.90;;;;;;5009237;28;20057;-82
2022/12/31 08:56:12;;;;;;;4.88;3.63;;;11.50;99.90;;;;;;5008573;28;20046;-81
2022/12/31 08:59:04;;;;;;;3.97;3.28;;;11.70;99.90;;;;;;5008428;28;20045;-81
2022/12/31 09:01:39;;;;;;;4.00;3.25;;;11.70;99.90;;;;;;5019109;28;20045;-81
2022/12/31 09:04:21;;;;;;;3.25;2.95;;;11.90;99.90;;;;;;5027734;28;20725;-81
2022/12/31 09:06:58;;;;;;;4.07;3.03;;;12.00;99.90;;;;;;5025179;28;20041;-83
2022/12/31 09:09:52;;;;;;;4.43;2.80;;;12.00;99.90;;;;;;5010388;28;20037;-80
2022/12/31 09:13:15;;;;;;;3.13;2.58;;;12.00;99.90;;;;;;5012292;28;20060;-80
2022/12/31 09:15:51;;;;;;;2.83;2.30;;;12.10;99.90;;;;;;5022023;28;20073;-80
2022/12/31 09:18:17;;;;;;;3.75;2.78;;;12.10;99.90;;;;;;5022954;28;20045;-81
2022/12/31 09:20:43;;;;;;;3.38;2.50;;;12.20;99.90;;;;;;5012819;28;20463;-84
2022/12/31 09:23:10;;;;;;;3.85;2.58;;;12.30;99.90;;;;;;5025769;28;20388;-82
2022/12/31 09:26:06;;;;;;;3.55;2.08;;;12.30;99.90;;;;;;5027994;28;20041;-81
2022/12/31 09:29:00;;;;;;;3.55;2.20;;;12.40;99.90;;;;;;5023673;28;20037;-82
2022/12/31 09:31:43;;;;;;;2.63;1.85;;;12.40;99.90;;;;;;5008045;28;20058;-81
2022/12/31 09:34:25;;;;;;;2.45;1.70;;;12.40;99.90;;;;;;5006951;28;20141;-81
2022/12/31 09:37:01;;;;;;;2.22;1.73;;;12.40;99.90;;;;;;5008182;28;20077;-80
2022/12/31 09:39:38;;;;;;;2.42;1.40;;;12.40;99.90;;;;;;5022944;28;20041;-80
2022/12/31 09:42:41;;;;;;;2.45;1.15;;;12.50;99.90;;;;;;5027006;28;20566;-81
2022/12/31 09:45:56;;;;;;;1.27;1.10;;;12.50;99.90;;;;;;5026934;28;20065;-80
2022/12/31 09:48:42;;;;;;;1.20;1.10;;;12.50;99.90;;;;;;5041524;28;20049;-81
2022/12/31 09:51:28;;;;;;;1.50;0.98;;;12.50;99.90;;;;;;5001060;28;20042;-81
2022/12/31 09:54:02;;;;;;;0.63;0.63;;;12.50;99.90;;;;;;5030394;28;20140;-81
2022/12/31 09:56:34;;;;;;;0.80;0.80;;;12.60;99.90;;;;;;5030190;28;20049;-83
2022/12/31 09:59:18;;;;;;;2.58;0.80;;;12.70;99.90;;;;;;5018264;28;20411;-80
2022/12/31 10:02:08;;;;;;;1.17;0.85;;;12.70;99.90;;;;;;5010774;28;20132;-80
2022/12/31 10:05:15;;;;;;;1.55;1.30;;;12.80;99.90;;;;;;5011981;28;20147;-80
2022/12/31 10:07:59;;;;;;;1.63;1.00;;;12.80;99.90;;;;;;5011911;28;20042;-81
2022/12/31 10:10:54;;;;;;;2.38;0.95;;;12.90;99.90;;;;;;5010581;28;20152;-81
2022/12/31 10:13:22;;;;;;;1.20;0.90;;;13.00;99.90;;;;;;5009862;28;20443;-80
2022/12/31 10:16:19;;;;;;;1.42;0.60;;;13.00;99.90;;;;;;5011109;28;20049;-81
2022/12/31 10:19:13;;;;;;;1.67;0.90;;;13.10;99.90;;;;;;5011654;28;20054;-81
2022/12/31 10:21:45;;;;;;;1.23;0.80;;;13.10;99.90;;;;;;5018194;28;20464;-81
2022/12/31 10:24:29;;;;;;;1.90;1.80;;;13.10;99.90;;;;;;5010162;28;20088;-81
2022/12/31 10:27:03;;;;;;;4.45;3.65;;;13.10;99.90;;;;;;5011381;28;20045;-81
2022/12/31 10:30:00;;;;;;;1.65;1.20;;;13.20;99.90;;;;;;5010298;28;20060;-82
2022/12/31 10:32:48;;;;;;;1.60;0.77;;;13.10;99.90;;;;;;5018160;28;20053;-83
2022/12/31 10:35:22;;;;;;;1.13;1.00;;;13.20;99.90;;;;;;5029222;28;20056;-81
2022/12/31 10:38:03;;;;;;;1.50;0.80;;;13.20;99.90;;;;;;5009703;28;20055;-81
2022/12/31 10:40:54;;;;;;;2.15;1.20;;;13.30;99.90;;;;;;4993612;28;20046;-81
2022/12/31 10:43:38;;;;;;;1.00;0.80;;;13.30;99.90;;;;;;5009711;28;20056;-81
2022/12/31 10:46:24;;;;;;;3.10;1.25;;;13.30;99.90;;;;;;5026096;28;20042;-81
2022/12/31 10:49:17;;;;;;;3.25;1.00;;;13.30;99.90;;;;;;5010176;28;20045;-81
2022/12/31 10:52:27;;;;;;;2.45;1.38;;;13.30;99.90;;;;;;5040232;28;20056;-80
2022/12/31 10:55:09;;;;;;;2.40;1.40;;;13.30;99.90;;;;;;5013138;28;20060;-81
2022/12/31 10:58:05;;;;;;;2.40;1.08;;;13.30;99.90;;;;;;5006951;28;20057;-81
2022/12/31 11:01:01;;;;;;;3.55;1.85;;;12.90;99.90;;;;;;5023900;28;20092;-81
2022/12/31 11:04:28;;;;;;;2.78;1.52;;;13.30;99.90;;;;;;5009208;28;20538;-81
2022/12/31 11:07:12;;;;;;;5.25;1.70;;;13.20;99.90;;;;;;4990559;28;20108;-81
2022/12/31 11:10:00;;;;;;;5.35;1.83;;;13.20;99.90;;;;;;5023784;28;20139;-82
2022/12/31 11:13:13;;;;;;;3.53;1.70;;;13.10;99.90;;;;;;5014145;28;20111;-83
2022/12/31 11:16:01;;;;;;;4.97;1.50;;;13.10;99.90;;;;;;5024084;28;20117;-81
2022/12/31 11:18:50;;;;;;;4.25;1.50;;;13.00;99.90;;;;;;5009649;28;20053;-80
2022/12/31 11:21:52;;;;;;;2.65;1.60;;;12.90;99.90;;;;;;5021993;28;20084;-80
2022/12/31 11:24:32;;;;;;;2.10;1.57;;;12.90;99.90;;;;;;5009328;28;20072;-80
2022/12/31 11:27:06;;;;;;;2.25;1.70;;;12.90;99.90;;;;;;4992023;28;20300;-81
2022/12/31 11:29:44;;;;;;;3.30;1.70;;;12.90;99.90;;;;;;5025498;28;20045;-81
2022/12/31 11:32:24;;;;;;;4.13;1.92;;;12.80;99.90;;;;;;5025442;28;20172;-81
2022/12/31 11:35:02;;;;;;;3.92;1.98;;;12.90;99.90;;;;;;5010212;28;20085;-81
2022/12/31 11:37:48;;;;;;;4.18;2.13;;;12.90;99.90;;;;;;5035543;28;20087;-82
2022/12/31 11:40:25;;;;;;;4.75;1.98;;;12.90;99.90;;;;;;5011777;28;20053;-80
2022/12/31 11:43:22;;;;;;;5.95;3.72;;;13.00;99.90;;;;;;5007946;28;20060;-82
2022/12/31 11:46:23;;;;;;;5.05;3.22;;;13.00;99.90;;;;;;5007748;28;20089;-83
2022/12/31 11:49:07;;;;;;;4.93;2.90;;;13.10;99.90;;;;;;5008581;28;20511;-81
2022/12/31 11:51:48;;;;;;;6.43;3.65;;;13.10;99.90;;;;;;5008444;28;20083;-81
2022/12/31 11:54:31;;;;;;;6.43;3.83;;;13.10;99.90;;;;;;4992617;28;20046;-81
2022/12/31 11:57:19;;;;;;;6.07;3.10;;;13.10;99.90;;;;;;5008051;28;20050;-81
2022/12/31 11:59:49;;;;;;;9.07;7.20;;;13.20;99.90;;;;;;5008337;28;20046;-81
2022/12/31 12:02:20;;;;;;;9.70;7.45;;;13.40;99.90;;;;;;5008277;28;20050;-81
2022/12/31 12:04:48;;;;;;;8.25;6.05;;;13.30;99.90;;;;;;5009610;28;20103;-81
2022/12/31 12:07:16;;;;;;;10.35;7.78;;;13.30;99.90;;;;;;5008832;28;20054;-82
2022/12/31 12:09:44;;;;;;;5.25;3.80;;;13.40;99.90;;;;;;5008267;28;20038;-83
2022/12/31 12:12:10;;;;;;;7.55;5.25;;;13.40;99.90;;;;;;4998484;28;20045;-81
2022/12/31 12:14:41;;;;;;;4.22;2.78;;;13.50;99.90;;;;;;5013532;28;20202;-81
2022/12/31 12:17:17;;;;;;;7.60;3.70;;;13.60;99.90;;;;;;4996950;28;20037;-81
2022/12/31 12:19:46;;;;;;;10.00;6.57;;;13.80;99.90;;;;;;5009316;28;20056;-81
2022/12/31 12:22:20;;;;;;;35.35;30.33;;;13.70;99.90;;;;;;5021253;28;20045;-83
2022/12/31 12:25:16;;;;;;;3.60;2.90;;;13.70;99.90;;;;;;5007498;28;20137;-81
2022/12/31 12:27:42;;;;;;;3.50;2.65;;;13.80;99.90;;;;;;5008170;28;20054;-81
2022/12/31 12:30:17;;;;;;;2.83;1.60;;;13.80;99.90;;;;;;5008922;28;20084;-80
2022/12/31 12:32:52;;;;;;;2.55;1.48;;;13.90;99.90;;;;;;5025777;28;20472;-81
2022/12/31 12:35:38;;;;;;;2.03;1.40;;;13.90;99.90;;;;;;5029477;28;20047;-81
2022/12/31 12:38:14;;;;;;;1.40;1.27;;;13.90;99.90;;;;;;5028923;28;20464;-82
2022/12/31 12:40:40;;;;;;;3.33;1.55;;;13.90;99.90;;;;;;5019715;28;20132;-81
2022/12/31 12:43:21;;;;;;;3.28;2.08;;;14.50;99.90;;;;;;5009381;28;20480;-81
2022/12/31 12:45:48;;;;;;;2.72;1.90;;;14.00;99.90;;;;;;5008809;28;20152;-83
2022/12/31 12:48:24;;;;;;;2.78;1.55;;;14.00;99.90;;;;;;5019156;28;20045;-82
2022/12/31 12:50:50;;;;;;;6.38;1.70;;;14.00;99.90;;;;;;5030193;28;20045;-81
2022/12/31 12:53:37;;;;;;;3.97;2.00;;;14.00;99.90;;;;;;5029944;28;20037;-82
2022/12/31 12:56:24;;;;;;;3.03;1.95;;;13.90;99.90;;;;;;5017891;28;20415;-81
2022/12/31 12:59:11;;;;;;;2.88;1.67;;;13.90;99.90;;;;;;5026608;28;20049;-81
2022/12/31 13:01:52;;;;;;;4.53;2.00;;;13.80;99.90;;;;;;5026310;28;20511;-80
2022/12/31 13:04:36;;;;;;;2.40;1.75;;;13.80;99.90;;;;;;5027437;28;20053;-80
2022/12/31 13:07:31;;;;;;;3.80;1.80;;;13.70;99.90;;;;;;5018358;28;20046;-80
2022/12/31 13:10:10;;;;;;;3.25;1.70;;;13.70;99.90;;;;;;5023914;28;20060;-80
2022/12/31 13:12:58;;;;;;;2.30;1.95;;;13.60;99.90;;;;;;5007152;28;20069;-80
2022/12/31 13:15:32;;;;;;;1.98;1.85;;;13.60;99.90;;;;;;5043529;28;20116;-81
2022/12/31 13:18:11;;;;;;;2.47;1.77;;;13.60;99.90;;;;;;5026763;28;20179;-82
2022/12/31 13:20:41;;;;;;;3.95;1.67;;;13.50;99.90;;;;;;5025008;28;20136;-80
2022/12/31 13:23:32;;;;;;;4.82;1.80;;;13.50;99.90;;;;;;5011026;28;20168;-82
2022/12/31 13:26:04;;;;;;;4.90;1.98;;;13.40;99.90;;;;;;5009926;28;20054;-80
2022/12/31 13:28:32;;;;;;;2.72;1.70;;;13.40;99.90;;;;;;5007258;28;20061;-80
2022/12/31 13:31:02;;;;;;;3.00;1.48;;;13.40;99.90;;;;;;5015880;28;20053;-80
2022/12/31 13:33:42;;;;;;;6.60;1.60;;;13.30;99.90;;;;;;5026789;28;20053;-81
2022/12/31 13:36:14;;;;;;;5.38;2.00;;;13.30;99.90;;;;;;5026200;28;20204;-80